sensor_id;sensor_type;location;lat;lon;timestamp;pressure;altitude;pressure_sealevel;temperature;humidity
58622;BME280;44389;51.578;5.456;2022-09-01T00:02:11;101935.59;;;14.63;61.63
58622;BME280;44389;51.578;5.456;2022-09-01T00:04:41;101939.72;;;14.57;62.38
58622;BME280;44389;51.578;5.456;2022-09-01T00:07:07;101940.22;;;14.72;59.97
58622;BME280;44389;51.578;5.456;2022-09-01T00:09:33;101941.38;;;14.55;62.42
58622;BME280;44389;51.578;5.456;2022-09-01T00:11:59;101937.69;;;14.46;63.71
58622;BME280;44389;51.578;5.456;2022-09-01T00:14:28;101933.22;;;14.42;63.88
58622;BME280;44389;51.578;5.456;2022-09-01T00:16:54;101935.72;;;14.39;64.34
58622;BME280;44389;51.578;5.456;2022-09-01T00:19:20;101936.59;;;14.40;64.71
58622;BME280;44389;51.578;5.456;2022-09-01T00:21:45;101929.66;;;14.39;65.01
58622;BME280;44389;51.578;5.456;2022-09-01T00:24:14;101931.09;;;14.30;65.53
58622;BME280;44389;51.578;5.456;2022-09-01T00:26:40;101926.63;;;14.25;65.98
58622;BME280;44389;51.578;5.456;2022-09-01T00:29:06;101932.59;;;14.22;66.55
58622;BME280;44389;51.578;5.456;2022-09-01T00:31:31;101935.00;;;14.18;66.96
58622;BME280;44389;51.578;5.456;2022-09-01T00:33:57;101933.13;;;14.12;67.32
58622;BME280;44389;51.578;5.456;2022-09-01T00:36:22;101937.44;;;14.11;67.61
58622;BME280;44389;51.578;5.456;2022-09-01T00:38:49;101939.63;;;13.99;68.36
58622;BME280;44389;51.578;5.456;2022-09-01T00:41:17;101934.13;;;13.90;68.87
58622;BME280;44389;51.578;5.456;2022-09-01T00:43:44;101934.91;;;13.87;69.09
58622;BME280;44389;51.578;5.456;2022-09-01T00:46:15;101933.06;;;13.83;69.47
58622;BME280;44389;51.578;5.456;2022-09-01T00:48:40;101937.16;;;13.76;69.85
58622;BME280;44389;51.578;5.456;2022-09-01T00:51:08;101930.81;;;13.68;70.36
58622;BME280;44389;51.578;5.456;2022-09-01T00:53:35;101930.19;;;13.75;70.45
58622;BME280;44389;51.578;5.456;2022-09-01T00:56:03;101928.09;;;13.63;71.09
58622;BME280;44389;51.578;5.456;2022-09-01T00:58:29;101926.34;;;13.64;71.34
58622;BME280;44389;51.578;5.456;2022-09-01T01:00:55;101926.28;;;13.61;71.50
58622;BME280;44389;51.578;5.456;2022-09-01T01:03:20;101930.50;;;13.59;71.55
58622;BME280;44389;51.578;5.456;2022-09-01T01:05:50;101937.22;;;13.54;71.89
58622;BME280;44389;51.578;5.456;2022-09-01T01:08:23;101930.06;;;13.46;72.46
58622;BME280;44389;51.578;5.456;2022-09-01T01:11:04;101923.84;;;13.41;72.63
58622;BME280;44389;51.578;5.456;2022-09-01T01:13:30;101925.34;;;13.36;73.00
58622;BME280;44389;51.578;5.456;2022-09-01T01:16:01;101923.38;;;13.29;73.14
58622;BME280;44389;51.578;5.456;2022-09-01T01:18:27;101924.44;;;13.34;73.42
58622;BME280;44389;51.578;5.456;2022-09-01T01:21:04;101925.03;;;13.27;73.49
58622;BME280;44389;51.578;5.456;2022-09-01T01:24:20;101927.47;;;13.22;73.23
58622;BME280;44389;51.578;5.456;2022-09-01T01:26:46;101923.59;;;13.11;74.64
58622;BME280;44389;51.578;5.456;2022-09-01T01:29:12;101919.28;;;13.11;74.61
58622;BME280;44389;51.578;5.456;2022-09-01T01:31:39;101918.28;;;13.08;75.02
58622;BME280;44389;51.578;5.456;2022-09-01T01:34:04;101913.84;;;13.04;75.30
58622;BME280;44389;51.578;5.456;2022-09-01T01:36:33;101922.13;;;12.95;75.59
58622;BME280;44389;51.578;5.456;2022-09-01T01:39:05;101918.50;;;12.90;76.13
58622;BME280;44389;51.578;5.456;2022-09-01T01:41:31;101922.81;;;12.89;75.95
58622;BME280;44389;51.578;5.456;2022-09-01T01:43:59;101925.69;;;12.97;76.15
58622;BME280;44389;51.578;5.456;2022-09-01T01:46:29;101920.16;;;12.88;76.45
58622;BME280;44389;51.578;5.456;2022-09-01T01:48:54;101926.88;;;12.82;76.43
58622;BME280;44389;51.578;5.456;2022-09-01T01:51:21;101925.94;;;12.80;76.79
58622;BME280;44389;51.578;5.456;2022-09-01T01:53:54;101923.69;;;12.90;76.84
58622;BME280;44389;51.578;5.456;2022-09-01T01:56:20;101924.56;;;12.90;77.02
58622;BME280;44389;51.578;5.456;2022-09-01T01:58:53;101929.75;;;12.90;77.09
58622;BME280;44389;51.578;5.456;2022-09-01T02:01:20;101931.34;;;12.87;77.29
58622;BME280;44389;51.578;5.456;2022-09-01T02:03:48;101933.06;;;12.86;77.33
58622;BME280;44389;51.578;5.456;2022-09-01T02:06:16;101923.56;;;12.87;77.51
58622;BME280;44389;51.578;5.456;2022-09-01T02:08:48;101927.66;;;12.80;77.76
58622;BME280;44389;51.578;5.456;2022-09-01T02:11:14;101931.88;;;12.78;77.73
58622;BME280;44389;51.578;5.456;2022-09-01T02:13:41;101935.69;;;12.88;78.02
58622;BME280;44389;51.578;5.456;2022-09-01T02:16:08;101934.59;;;12.81;78.10
58622;BME280;44389;51.578;5.456;2022-09-01T02:18:39;101931.91;;;12.79;78.26
58622;BME280;44389;51.578;5.456;2022-09-01T02:21:08;101930.28;;;12.81;77.87
58622;BME280;44389;51.578;5.456;2022-09-01T02:23:37;101932.91;;;12.83;78.27
58622;BME280;44389;51.578;5.456;2022-09-01T02:26:02;101936.81;;;12.94;74.81
58622;BME280;44389;51.578;5.456;2022-09-01T02:28:32;101930.69;;;12.70;78.36
58622;BME280;44389;51.578;5.456;2022-09-01T02:30:59;101933.25;;;12.68;78.74
58622;BME280;44389;51.578;5.456;2022-09-01T02:33:26;101933.34;;;12.71;78.61
58622;BME280;44389;51.578;5.456;2022-09-01T02:36:01;101928.81;;;12.65;78.55
58622;BME280;44389;51.578;5.456;2022-09-01T02:38:27;101930.41;;;12.62;79.09
58622;BME280;44389;51.578;5.456;2022-09-01T02:40:55;101925.81;;;12.55;79.12
58622;BME280;44389;51.578;5.456;2022-09-01T02:43:21;101922.75;;;12.65;79.11
58622;BME280;44389;51.578;5.456;2022-09-01T02:45:51;101934.88;;;12.66;79.20
58622;BME280;44389;51.578;5.456;2022-09-01T02:48:31;101929.44;;;12.60;79.41
58622;BME280;44389;51.578;5.456;2022-09-01T02:51:00;101926.28;;;12.44;79.87
58622;BME280;44389;51.578;5.456;2022-09-01T02:53:27;101922.81;;;12.44;79.89
58622;BME280;44389;51.578;5.456;2022-09-01T02:55:53;101920.22;;;12.44;80.25
58622;BME280;44389;51.578;5.456;2022-09-01T02:58:23;101917.91;;;12.29;80.63
58622;BME280;44389;51.578;5.456;2022-09-01T03:00:54;101911.88;;;12.28;80.95
58622;BME280;44389;51.578;5.456;2022-09-01T03:03:20;101916.03;;;12.25;80.52
58622;BME280;44389;51.578;5.456;2022-09-01T03:05:46;101915.78;;;12.18;81.02
58622;BME280;44389;51.578;5.456;2022-09-01T03:08:11;101911.81;;;12.06;81.37
58622;BME280;44389;51.578;5.456;2022-09-01T03:10:41;101909.94;;;12.01;81.24
58622;BME280;44389;51.578;5.456;2022-09-01T03:13:16;101917.75;;;12.03;81.00
58622;BME280;44389;51.578;5.456;2022-09-01T03:15:42;101912.72;;;12.06;81.16
58622;BME280;44389;51.578;5.456;2022-09-01T03:18:09;101910.84;;;12.02;81.34
58622;BME280;44389;51.578;5.456;2022-09-01T03:20:36;101909.31;;;12.07;80.89
58622;BME280;44389;51.578;5.456;2022-09-01T03:23:06;101913.41;;;12.02;80.69
58622;BME280;44389;51.578;5.456;2022-09-01T03:25:33;101912.97;;;12.12;80.17
58622;BME280;44389;51.578;5.456;2022-09-01T03:27:58;101903.88;;;12.22;79.66
58622;BME280;44389;51.578;5.456;2022-09-01T03:30:27;101907.16;;;12.18;79.69
58622;BME280;44389;51.578;5.456;2022-09-01T03:32:54;101909.09;;;12.24;79.22
58622;BME280;44389;51.578;5.456;2022-09-01T03:35:19;101910.50;;;12.15;79.89
58622;BME280;44389;51.578;5.456;2022-09-01T03:37:46;101906.28;;;12.17;79.62
58622;BME280;44389;51.578;5.456;2022-09-01T03:40:13;101914.50;;;12.30;78.90
58622;BME280;44389;51.578;5.456;2022-09-01T03:42:40;101916.28;;;12.31;78.82
58622;BME280;44389;51.578;5.456;2022-09-01T03:45:06;101909.69;;;12.39;78.62
58622;BME280;44389;51.578;5.456;2022-09-01T03:47:38;101913.84;;;12.35;78.25
58622;BME280;44389;51.578;5.456;2022-09-01T03:50:10;101907.81;;;12.35;78.74
58622;BME280;44389;51.578;5.456;2022-09-01T03:52:48;101908.81;;;12.39;77.89
58622;BME280;44389;51.578;5.456;2022-09-01T03:55:18;101913.41;;;12.46;78.16
58622;BME280;44389;51.578;5.456;2022-09-01T03:57:51;101914.09;;;12.42;77.94
58622;BME280;44389;51.578;5.456;2022-09-01T04:00:18;101912.53;;;12.45;77.78
58622;BME280;44389;51.578;5.456;2022-09-01T04:02:49;101916.75;;;12.43;77.40
58622;BME280;44389;51.578;5.456;2022-09-01T04:05:17;101911.56;;;12.43;77.52
58622;BME280;44389;51.578;5.456;2022-09-01T04:07:44;101906.34;;;12.42;77.36
58622;BME280;44389;51.578;5.456;2022-09-01T04:10:11;101907.31;;;12.44;76.99
58622;BME280;44389;51.578;5.456;2022-09-01T04:12:36;101901.22;;;12.43;76.97
58622;BME280;44389;51.578;5.456;2022-09-01T04:15:03;101902.75;;;12.38;77.02
58622;BME280;44389;51.578;5.456;2022-09-01T04:17:28;101897.88;;;12.46;77.03
58622;BME280;44389;51.578;5.456;2022-09-01T04:20:12;101904.41;;;12.36;77.15
58622;BME280;44389;51.578;5.456;2022-09-01T04:22:39;101901.69;;;12.33;77.14
58622;BME280;44389;51.578;5.456;2022-09-01T04:25:04;101907.47;;;12.26;77.41
58622;BME280;44389;51.578;5.456;2022-09-01T04:27:30;101911.00;;;12.28;77.20
58622;BME280;44389;51.578;5.456;2022-09-01T04:29:56;101910.16;;;12.29;77.28
58622;BME280;44389;51.578;5.456;2022-09-01T04:32:21;101910.81;;;12.23;77.15
58622;BME280;44389;51.578;5.456;2022-09-01T04:34:48;101909.94;;;12.23;77.34
58622;BME280;44389;51.578;5.456;2022-09-01T04:37:16;101911.75;;;12.25;76.93
58622;BME280;44389;51.578;5.456;2022-09-01T04:39:48;101917.38;;;12.15;77.30
58622;BME280;44389;51.578;5.456;2022-09-01T04:42:13;101909.09;;;12.24;77.08
58622;BME280;44389;51.578;5.456;2022-09-01T04:44:40;101910.59;;;12.18;77.05
58622;BME280;44389;51.578;5.456;2022-09-01T04:47:07;101910.59;;;12.18;76.80
58622;BME280;44389;51.578;5.456;2022-09-01T04:49:35;101915.56;;;12.12;77.15
58622;BME280;44389;51.578;5.456;2022-09-01T04:52:02;101910.38;;;12.12;77.02
58622;BME280;44389;51.578;5.456;2022-09-01T04:54:27;101916.16;;;12.07;77.13
58622;BME280;44389;51.578;5.456;2022-09-01T04:56:53;101910.69;;;11.99;77.78
58622;BME280;44389;51.578;5.456;2022-09-01T04:59:22;101912.66;;;12.05;77.90
58622;BME280;44389;51.578;5.456;2022-09-01T05:01:48;101919.06;;;11.93;78.34
58622;BME280;44389;51.578;5.456;2022-09-01T05:04:15;101911.91;;;11.88;78.37
58622;BME280;44389;51.578;5.456;2022-09-01T05:06:44;101910.22;;;11.88;78.08
58622;BME280;44389;51.578;5.456;2022-09-01T05:09:11;101914.75;;;11.94;77.56
58622;BME280;44389;51.578;5.456;2022-09-01T05:11:38;101917.28;;;11.92;77.88
58622;BME280;44389;51.578;5.456;2022-09-01T05:14:04;101909.16;;;11.83;78.29
58622;BME280;44389;51.578;5.456;2022-09-01T05:16:31;101913.56;;;11.85;78.56
58622;BME280;44389;51.578;5.456;2022-09-01T05:18:57;101914.38;;;11.84;77.90
58622;BME280;44389;51.578;5.456;2022-09-01T05:21:26;101914.03;;;11.96;76.42
58622;BME280;44389;51.578;5.456;2022-09-01T05:23:54;101914.75;;;11.94;77.98
58622;BME280;44389;51.578;5.456;2022-09-01T05:26:22;101919.25;;;11.98;76.21
58622;BME280;44389;51.578;5.456;2022-09-01T05:28:53;101917.97;;;11.88;78.57
58622;BME280;44389;51.578;5.456;2022-09-01T05:31:23;101924.72;;;11.84;78.60
58622;BME280;44389;51.578;5.456;2022-09-01T05:33:49;101919.34;;;11.99;78.04
58622;BME280;44389;51.578;5.456;2022-09-01T05:36:17;101922.09;;;12.04;78.20
58622;BME280;44389;51.578;5.456;2022-09-01T05:38:44;101927.72;;;12.15;77.11
58622;BME280;44389;51.578;5.456;2022-09-01T05:41:13;101922.59;;;12.16;77.15
58622;BME280;44389;51.578;5.456;2022-09-01T05:43:43;101934.00;;;12.22;76.88
58622;BME280;44389;51.578;5.456;2022-09-01T05:46:10;101927.84;;;12.18;76.98
58622;BME280;44389;51.578;5.456;2022-09-01T05:48:35;101924.38;;;12.17;76.58
58622;BME280;44389;51.578;5.456;2022-09-01T05:51:05;101929.53;;;12.17;76.55
58622;BME280;44389;51.578;5.456;2022-09-01T05:53:31;101934.06;;;12.23;76.75
58622;BME280;44389;51.578;5.456;2022-09-01T05:55:59;101925.34;;;12.21;77.08
58622;BME280;44389;51.578;5.456;2022-09-01T05:58:26;101934.31;;;12.29;76.75
58622;BME280;44389;51.578;5.456;2022-09-01T06:00:53;101935.31;;;12.33;76.14
58622;BME280;44389;51.578;5.456;2022-09-01T06:03:20;101932.16;;;12.40;75.43
58622;BME280;44389;51.578;5.456;2022-09-01T06:05:47;101930.88;;;12.51;76.13
58622;BME280;44389;51.578;5.456;2022-09-01T06:08:21;101932.09;;;12.61;75.45
58622;BME280;44389;51.578;5.456;2022-09-01T06:10:47;101932.38;;;12.69;75.32
58622;BME280;44389;51.578;5.456;2022-09-01T06:13:15;101937.22;;;12.82;74.54
58622;BME280;44389;51.578;5.456;2022-09-01T06:15:42;101934.94;;;12.90;74.92
58622;BME280;44389;51.578;5.456;2022-09-01T06:18:10;101941.31;;;13.00;74.59
58622;BME280;44389;51.578;5.456;2022-09-01T06:20:45;101939.22;;;13.14;74.70
58622;BME280;44389;51.578;5.456;2022-09-01T06:23:11;101937.16;;;13.28;73.34
58622;BME280;44389;51.578;5.456;2022-09-01T06:25:39;101941.16;;;13.42;72.95
58622;BME280;44389;51.578;5.456;2022-09-01T06:28:06;101930.44;;;13.57;71.84
58622;BME280;44389;51.578;5.456;2022-09-01T06:30:32;101931.75;;;13.70;71.62
58622;BME280;44389;51.578;5.456;2022-09-01T06:33:01;101939.22;;;13.87;71.04
58622;BME280;44389;51.578;5.456;2022-09-01T06:35:26;101936.13;;;13.97;70.24
58622;BME280;44389;51.578;5.456;2022-09-01T06:37:54;101945.09;;;14.08;70.03
58622;BME280;44389;51.578;5.456;2022-09-01T06:40:21;101935.09;;;14.19;69.86
58622;BME280;44389;51.578;5.456;2022-09-01T06:42:51;101945.78;;;14.30;69.85
58622;BME280;44389;51.578;5.456;2022-09-01T06:45:19;101942.50;;;14.36;68.95
58622;BME280;44389;51.578;5.456;2022-09-01T06:47:46;101935.91;;;14.45;69.28
58622;BME280;44389;51.578;5.456;2022-09-01T06:50:14;101943.94;;;14.53;68.89
58622;BME280;44389;51.578;5.456;2022-09-01T06:52:41;101945.22;;;14.66;68.96
58622;BME280;44389;51.578;5.456;2022-09-01T06:55:10;101948.00;;;14.72;68.53
58622;BME280;44389;51.578;5.456;2022-09-01T06:57:40;101952.53;;;14.79;67.49
58622;BME280;44389;51.578;5.456;2022-09-01T07:00:17;101954.47;;;14.87;66.65
58622;BME280;44389;51.578;5.456;2022-09-01T07:02:46;101946.16;;;14.98;67.25
58622;BME280;44389;51.578;5.456;2022-09-01T07:05:13;101952.38;;;15.04;66.06
58622;BME280;44389;51.578;5.456;2022-09-01T07:07:49;101956.97;;;15.12;65.81
58622;BME280;44389;51.578;5.456;2022-09-01T07:10:16;101952.81;;;15.19;65.07
58622;BME280;44389;51.578;5.456;2022-09-01T07:12:44;101961.41;;;15.48;65.68
58622;BME280;44389;51.578;5.456;2022-09-01T07:15:10;101960.78;;;15.57;64.94
58622;BME280;44389;51.578;5.456;2022-09-01T07:17:48;101960.06;;;15.63;64.64
58622;BME280;44389;51.578;5.456;2022-09-01T07:20:15;101955.97;;;15.71;64.81
58622;BME280;44389;51.578;5.456;2022-09-01T07:22:41;101955.84;;;16.00;63.45
58622;BME280;44389;51.578;5.456;2022-09-01T07:25:07;101956.00;;;16.06;63.65
58622;BME280;44389;51.578;5.456;2022-09-01T07:27:36;101962.34;;;16.18;63.38
58622;BME280;44389;51.578;5.456;2022-09-01T07:30:02;101961.72;;;16.28;62.93
58622;BME280;44389;51.578;5.456;2022-09-01T07:32:27;101954.97;;;16.35;63.12
58622;BME280;44389;51.578;5.456;2022-09-01T07:34:55;101959.88;;;16.60;62.20
58622;BME280;44389;51.578;5.456;2022-09-01T07:37:20;101949.56;;;16.65;61.62
58622;BME280;44389;51.578;5.456;2022-09-01T07:39:46;101956.69;;;16.74;62.09
58622;BME280;44389;51.578;5.456;2022-09-01T07:42:12;101953.44;;;16.84;63.13
58622;BME280;44389;51.578;5.456;2022-09-01T07:44:40;101952.94;;;16.99;61.49
58622;BME280;44389;51.578;5.456;2022-09-01T07:47:05;101956.56;;;17.07;61.32
58622;BME280;44389;51.578;5.456;2022-09-01T07:49:34;101961.97;;;17.18;60.85
58622;BME280;44389;51.578;5.456;2022-09-01T07:52:03;101955.19;;;17.25;60.31
58622;BME280;44389;51.578;5.456;2022-09-01T07:54:29;101962.41;;;17.40;59.79
58622;BME280;44389;51.578;5.456;2022-09-01T07:56:54;101951.31;;;17.52;59.94
58622;BME280;44389;51.578;5.456;2022-09-01T07:59:20;101955.00;;;17.63;59.72
58622;BME280;44389;51.578;5.456;2022-09-01T08:01:46;101959.56;;;17.75;59.65
58622;BME280;44389;51.578;5.456;2022-09-01T08:04:11;101960.00;;;17.98;59.27
58622;BME280;44389;51.578;5.456;2022-09-01T08:06:37;101961.03;;;18.06;58.97
58622;BME280;44389;51.578;5.456;2022-09-01T08:09:03;101950.91;;;18.28;57.24
58622;BME280;44389;51.578;5.456;2022-09-01T08:11:32;101960.00;;;18.55;56.84
58622;BME280;44389;51.578;5.456;2022-09-01T08:13:58;101952.34;;;18.67;56.09
58622;BME280;44389;51.578;5.456;2022-09-01T08:16:28;101954.22;;;18.76;56.86
58622;BME280;44389;51.578;5.456;2022-09-01T08:18:54;101959.56;;;18.87;56.22
58622;BME280;44389;51.578;5.456;2022-09-01T08:21:21;101963.22;;;18.98;56.85
58622;BME280;44389;51.578;5.456;2022-09-01T08:23:49;101959.88;;;19.07;55.73
58622;BME280;44389;51.578;5.456;2022-09-01T08:26:16;101956.53;;;19.22;56.25
58622;BME280;44389;51.578;5.456;2022-09-01T08:28:42;101959.31;;;19.37;55.52
58622;BME280;44389;51.578;5.456;2022-09-01T08:31:08;101956.88;;;19.56;56.06
58622;BME280;44389;51.578;5.456;2022-09-01T08:33:36;101957.97;;;19.77;54.72
58622;BME280;44389;51.578;5.456;2022-09-01T08:36:02;101963.41;;;19.97;52.37
58622;BME280;44389;51.578;5.456;2022-09-01T08:38:27;101957.31;;;19.96;52.01
58622;BME280;44389;51.578;5.456;2022-09-01T08:40:55;101960.97;;;20.20;52.35
58622;BME280;44389;51.578;5.456;2022-09-01T08:45:57;101965.41;;;20.27;51.33
58622;BME280;44389;51.578;5.456;2022-09-01T08:48:44;101959.31;;;20.34;51.85
58622;BME280;44389;51.578;5.456;2022-09-01T08:51:23;101965.56;;;20.53;51.32
58622;BME280;44389;51.578;5.456;2022-09-01T08:54:12;101963.03;;;20.66;51.26
58622;BME280;44389;51.578;5.456;2022-09-01T08:56:41;101966.69;;;20.97;50.32
58622;BME280;44389;51.578;5.456;2022-09-01T08:59:09;101965.81;;;21.03;49.16
58622;BME280;44389;51.578;5.456;2022-09-01T09:09:17;101954.50;;;21.15;48.83
58622;BME280;44389;51.578;5.456;2022-09-01T09:15:09;101952.84;;;21.49;48.45
58622;BME280;44389;51.578;5.456;2022-09-01T09:17:17;101955.50;;;21.54;46.65
58622;BME280;44389;51.578;5.456;2022-09-01T09:19:44;101951.16;;;21.71;46.85
58622;BME280;44389;51.578;5.456;2022-09-01T09:22:13;101958.16;;;22.03;46.54
58622;BME280;44389;51.578;5.456;2022-09-01T09:29:56;101949.41;;;22.23;44.26
58622;BME280;44389;51.578;5.456;2022-09-01T09:32:24;101945.91;;;22.36;44.24
58622;BME280;44389;51.578;5.456;2022-09-01T09:35:17;101945.88;;;22.55;44.11
58622;BME280;44389;51.578;5.456;2022-09-01T09:37:42;101937.03;;;22.81;43.23
58622;BME280;44389;51.578;5.456;2022-09-01T09:42:41;101926.63;;;24.02;42.12
58622;BME280;44389;51.578;5.456;2022-09-01T09:45:26;101929.22;;;24.07;42.34
58622;BME280;44389;51.578;5.456;2022-09-01T09:47:54;101930.56;;;24.48;39.15
58622;BME280;44389;51.578;5.456;2022-09-01T09:50:29;101919.66;;;24.79;38.44
58622;BME280;44389;51.578;5.456;2022-09-01T09:53:24;101919.66;;;24.79;39.50
58622;BME280;44389;51.578;5.456;2022-09-01T09:56:01;101904.03;;;25.85;37.04
58622;BME280;44389;51.578;5.456;2022-09-01T09:58:36;101912.03;;;26.31;36.12
58622;BME280;44389;51.578;5.456;2022-09-01T10:01:10;101906.22;;;27.74;34.45
58622;BME280;44389;51.578;5.456;2022-09-01T10:03:44;101910.84;;;27.28;32.35
58622;BME280;44389;51.578;5.456;2022-09-01T10:06:12;101912.53;;;28.05;30.79
58622;BME280;44389;51.578;5.456;2022-09-01T10:08:44;101921.41;;;27.68;30.19
58622;BME280;44389;51.578;5.456;2022-09-01T10:11:23;101913.13;;;28.16;29.60
58622;BME280;44389;51.578;5.456;2022-09-01T10:13:51;101911.34;;;27.81;29.57
58622;BME280;44389;51.578;5.456;2022-09-01T10:16:28;101914.81;;;27.48;30.49
58622;BME280;44389;51.578;5.456;2022-09-01T10:18:59;101908.34;;;27.22;28.76
58622;BME280;44389;51.578;5.456;2022-09-01T10:21:33;101902.09;;;27.97;29.46
58622;BME280;44389;51.578;5.456;2022-09-01T10:24:08;101897.91;;;27.88;28.17
58622;BME280;44389;51.578;5.456;2022-09-01T10:26:40;101908.09;;;28.05;27.72
58622;BME280;44389;51.578;5.456;2022-09-01T10:29:13;101904.41;;;28.11;28.04
58622;BME280;44389;51.578;5.456;2022-09-01T10:31:40;101903.63;;;29.00;27.66
58622;BME280;44389;51.578;5.456;2022-09-01T10:34:07;101892.16;;;29.27;27.49
58622;BME280;44389;51.578;5.456;2022-09-01T10:36:41;101899.91;;;30.62;24.31
58622;BME280;44389;51.578;5.456;2022-09-01T10:39:15;101902.16;;;30.49;25.35
58622;BME280;44389;51.578;5.456;2022-09-01T10:41:45;101899.41;;;30.52;24.40
58622;BME280;44389;51.578;5.456;2022-09-01T10:44:21;101895.28;;;30.90;23.55
58622;BME280;44389;51.578;5.456;2022-09-01T10:46:47;101893.94;;;30.32;23.84
58622;BME280;44389;51.578;5.456;2022-09-01T10:55:09;101898.06;;;30.39;24.03
58622;BME280;44389;51.578;5.456;2022-09-01T11:00:51;101895.16;;;32.00;22.94
58622;BME280;44389;51.578;5.456;2022-09-01T11:08:41;101887.81;;;32.85;22.47
58622;BME280;44389;51.578;5.456;2022-09-01T11:11:39;101888.41;;;33.46;22.18
58622;BME280;44389;51.578;5.456;2022-09-01T11:14:46;101887.88;;;32.83;20.85
58622;BME280;44389;51.578;5.456;2022-09-01T11:17:33;101892.72;;;31.96;22.56
58622;BME280;44389;51.578;5.456;2022-09-01T11:20:06;101881.25;;;31.73;21.66
58622;BME280;44389;51.578;5.456;2022-09-01T11:28:00;101872.03;;;32.41;20.18
58622;BME280;44389;51.578;5.456;2022-09-01T11:30:45;101875.13;;;33.44;21.31
58622;BME280;44389;51.578;5.456;2022-09-01T11:35:59;101869.75;;;33.27;20.15
58622;BME280;44389;51.578;5.456;2022-09-01T11:38:26;101863.84;;;33.90;18.29
58622;BME280;44389;51.578;5.456;2022-09-01T11:40:56;101860.31;;;34.23;18.32
58622;BME280;44389;51.578;5.456;2022-09-01T11:43:22;101860.97;;;33.60;18.13
58622;BME280;44389;51.578;5.456;2022-09-01T11:46:17;101860.75;;;33.10;19.04
58622;BME280;44389;51.578;5.456;2022-09-01T11:48:46;101853.03;;;33.41;18.98
58622;BME280;44389;51.578;5.456;2022-09-01T11:51:12;101853.25;;;33.54;18.82
58622;BME280;44389;51.578;5.456;2022-09-01T11:53:39;101850.13;;;34.30;18.07
58622;BME280;44389;51.578;5.456;2022-09-01T11:56:14;101843.69;;;34.66;19.14
58622;BME280;44389;51.578;5.456;2022-09-01T11:58:40;101845.81;;;34.11;17.63
58622;BME280;44389;51.578;5.456;2022-09-01T12:03:40;101834.22;;;34.60;16.69
58622;BME280;44389;51.578;5.456;2022-09-01T12:06:07;101835.91;;;34.93;16.46
58622;BME280;44389;51.578;5.456;2022-09-01T12:08:39;101839.16;;;35.15;17.19
58622;BME280;44389;51.578;5.456;2022-09-01T12:11:11;101836.94;;;34.91;17.07
58622;BME280;44389;51.578;5.456;2022-09-01T12:13:59;101831.13;;;34.99;17.10
58622;BME280;44389;51.578;5.456;2022-09-01T12:16:27;101823.91;;;35.01;16.86
58622;BME280;44389;51.578;5.456;2022-09-01T12:18:54;101824.69;;;34.71;17.16
58622;BME280;44389;51.578;5.456;2022-09-01T12:23:52;101828.06;;;35.21;15.61
58622;BME280;44389;51.578;5.456;2022-09-01T12:26:24;101832.16;;;35.42;16.29
58622;BME280;44389;51.578;5.456;2022-09-01T12:28:50;101819.44;;;35.46;15.00
58622;BME280;44389;51.578;5.456;2022-09-01T12:31:19;101818.97;;;34.77;15.46
58622;BME280;44389;51.578;5.456;2022-09-01T12:33:46;101822.66;;;35.06;16.31
58622;BME280;44389;51.578;5.456;2022-09-01T12:36:21;101825.03;;;34.97;16.06
58622;BME280;44389;51.578;5.456;2022-09-01T12:38:49;101819.34;;;34.55;15.38
58622;BME280;44389;51.578;5.456;2022-09-01T12:41:35;101824.69;;;34.87;16.14
58622;BME280;44389;51.578;5.456;2022-09-01T12:44:41;101818.84;;;35.10;16.42
58622;BME280;44389;51.578;5.456;2022-09-01T12:47:10;101813.75;;;35.36;14.86
58622;BME280;44389;51.578;5.456;2022-09-01T12:49:45;101807.88;;;35.60;15.40
58622;BME280;44389;51.578;5.456;2022-09-01T13:02:41;101803.06;;;35.51;14.37
58622;BME280;44389;51.578;5.456;2022-09-01T13:05:33;101800.28;;;35.07;15.53
58622;BME280;44389;51.578;5.456;2022-09-01T13:08:07;101796.44;;;35.11;15.52
58622;BME280;44389;51.578;5.456;2022-09-01T13:10:57;101796.78;;;35.21;16.12
58622;BME280;44389;51.578;5.456;2022-09-01T13:13:26;101798.88;;;35.16;14.52
58622;BME280;44389;51.578;5.456;2022-09-01T13:15:53;101796.94;;;36.21;15.64
58622;BME280;44389;51.578;5.456;2022-09-01T13:18:20;101791.78;;;34.85;14.96
58622;BME280;44389;51.578;5.456;2022-09-01T13:20:47;101778.75;;;35.09;14.59
58622;BME280;44389;51.578;5.456;2022-09-01T13:23:13;101781.16;;;34.67;15.17
58622;BME280;44389;51.578;5.456;2022-09-01T13:25:39;101781.84;;;34.87;14.68
58622;BME280;44389;51.578;5.456;2022-09-01T13:28:06;101776.47;;;33.57;14.82
58622;BME280;44389;51.578;5.456;2022-09-01T13:30:33;101775.38;;;32.91;15.96
58622;BME280;44389;51.578;5.456;2022-09-01T13:32:59;101768.22;;;33.44;15.75
58622;BME280;44389;51.578;5.456;2022-09-01T13:35:25;101766.19;;;33.14;15.49
58622;BME280;44389;51.578;5.456;2022-09-01T13:37:50;101769.09;;;33.78;15.38
58622;BME280;44389;51.578;5.456;2022-09-01T13:40:17;101767.28;;;34.28;15.26
58622;BME280;44389;51.578;5.456;2022-09-01T13:42:48;101771.34;;;33.53;15.66
58622;BME280;44389;51.578;5.456;2022-09-01T13:45:15;101763.56;;;33.13;15.97
58622;BME280;44389;51.578;5.456;2022-09-01T13:47:46;101754.06;;;32.90;16.17
58622;BME280;44389;51.578;5.456;2022-09-01T13:50:14;101754.16;;;33.74;15.51
58622;BME280;44389;51.578;5.456;2022-09-01T13:52:43;101745.97;;;33.09;15.38
58622;BME280;44389;51.578;5.456;2022-09-01T13:55:11;101755.91;;;32.33;16.17
58622;BME280;44389;51.578;5.456;2022-09-01T13:57:37;101749.81;;;32.86;16.59
58622;BME280;44389;51.578;5.456;2022-09-01T14:00:09;101756.28;;;32.81;16.82
58622;BME280;44389;51.578;5.456;2022-09-01T14:02:37;101746.69;;;32.77;16.60